SBDN/PPB METAR and TAF weather

Enter ICAO airport designator
Station Type Date Time Source
SBDN METAR 2019/02/16 02:00 UTC NOAA

SBDN 160200Z 00000KT CAVOK 23/22 Q1010


Station Type Date Time Source
SBDN Decoded METAR 2019/02/16 02:00 UTC NOAA

Presidente Prudente, Brazil (SBDN) 22-07S 051-23W
Feb 15, 2019 - 09:00 PM EST / 2019.02.16 0200 UTC
Wind: Calm:0
Visibility: greater than 7 mile(s):0
Temperature: 73 F (23 C)
Dew Point: 71 F (22 C)
Relative Humidity: 94%
Pressure (altimeter): 29.83 in. Hg (1010 hPa)
ob: SBDN 160200Z 00000KT CAVOK 23/22 Q1010
cycle: 2

Station Type Date Time Source
SBDN TAF 2019/02/16 00:33 UTC NOAA

TAF SBDN 152100Z 1600/1612 23007KT 9999 SCT030 TX24/1600Z TN20/1609Z PROB30 1600/1602 BKN006 PROB40
TEMPO 1608/1610 BKN008 BKN020
RMK PDJ


Example: see airport list